Time;durP1;ratioP1;P1;durP2;ratioP2;P2;SDS_P1;SDS_P2;PMS_P1;PMS_P2;Temp;Humidity;BMP_temperature;BMP_pressure;BME280_temperature;BME280_humidity;BME280_pressure;Samples;Min_cycle;Max_cycle;Signal;HPM_P1;HPM_P2
2021/12/14 00:01:13;;;;;;;35.57;18.93;;;7.40;99.90;;;;;;5011467;28;20180;-78
2021/12/14 00:03:43;;;;;;;33.77;18.90;;;7.40;99.90;;;;;;5011995;28;20176;-78
2021/12/14 00:06:10;;;;;;;46.53;23.27;;;7.40;99.90;;;;;;5012513;28;20199;-79
2021/12/14 00:08:47;;;;;;;31.27;17.33;;;7.40;99.90;;;;;;5011108;28;20184;-79
2021/12/14 00:11:46;;;;;;;29.33;16.55;;;7.40;99.90;;;;;;5010929;28;20202;-79
2021/12/14 00:17:27;;;;;;;35.67;19.20;;;7.30;99.90;;;;;;5012419;28;20214;-79
2021/12/14 00:19:56;;;;;;;23.85;15.15;;;7.40;99.90;;;;;;5011560;28;20600;-79
2021/12/14 00:24:55;;;;;;;25.93;15.17;;;7.40;99.90;;;;;;5012532;28;20164;-79
2021/12/14 00:27:23;;;;;;;25.07;15.50;;;7.40;99.90;;;;;;5010664;28;20211;-79
2021/12/14 00:29:53;;;;;;;25.00;15.50;;;7.40;99.90;;;;;;5010603;28;20183;-79
2021/12/14 00:32:23;;;;;;;28.40;17.30;;;7.40;99.90;;;;;;5011570;28;20189;-79
2021/12/14 00:34:52;;;;;;;23.00;14.52;;;7.40;99.90;;;;;;5011184;28;20184;-79
2021/12/14 00:37:22;;;;;;;20.45;13.45;;;7.40;99.90;;;;;;5010663;28;20203;-79
2021/12/14 00:39:49;;;;;;;20.13;13.30;;;7.40;99.90;;;;;;5009614;28;20551;-79
2021/12/14 00:42:15;;;;;;;19.40;12.63;;;7.40;99.90;;;;;;5010526;28;20207;-79
2021/12/14 00:44:41;;;;;;;20.08;12.68;;;7.40;99.90;;;;;;5011841;28;20254;-79
2021/12/14 00:47:07;;;;;;;17.17;12.73;;;7.40;99.90;;;;;;5010805;28;20203;-79
2021/12/14 00:49:33;;;;;;;28.50;15.50;;;7.40;99.90;;;;;;5010463;28;20639;-79
2021/12/14 00:52:00;;;;;;;28.75;14.65;;;7.40;99.90;;;;;;5011119;28;20184;-79
2021/12/14 00:54:26;;;;;;;35.13;18.13;;;7.40;99.90;;;;;;5010239;28;20184;-79
2021/12/14 00:56:52;;;;;;;29.03;14.70;;;7.40;99.90;;;;;;5010571;28;20666;-79
2021/12/14 00:59:20;;;;;;;23.10;12.68;;;7.30;99.90;;;;;;5010272;28;20233;-79
2021/12/14 01:01:51;;;;;;;26.93;14.07;;;7.30;99.90;;;;;;5010391;28;20238;-79
2021/12/14 01:04:24;;;;;;;16.40;10.87;;;7.30;99.90;;;;;;5011110;28;20270;-79
2021/12/14 01:06:50;;;;;;;22.50;13.60;;;7.30;99.90;;;;;;5010285;28;20208;-79
2021/12/14 01:09:21;;;;;;;18.77;12.07;;;7.20;99.90;;;;;;5010323;28;20337;-79
2021/12/14 01:11:48;;;;;;;19.50;11.33;;;7.20;99.90;;;;;;5010040;28;20172;-79
2021/12/14 01:14:22;;;;;;;18.05;11.30;;;7.30;99.90;;;;;;5010382;28;20240;-79
2021/12/14 01:17:05;;;;;;;16.55;11.10;;;7.30;99.90;;;;;;5026354;28;20207;-79
2021/12/14 01:19:33;;;;;;;14.85;10.60;;;7.20;99.90;;;;;;5010789;28;20175;-79
2021/12/14 01:27:19;;;;;;;13.90;10.17;;;7.20;99.90;;;;;;5011287;28;20198;-79
2021/12/14 01:29:47;;;;;;;13.80;9.73;;;7.30;99.90;;;;;;5009892;28;20255;-79
2021/12/14 01:32:16;;;;;;;23.92;10.32;;;7.30;99.90;;;;;;5027059;28;20182;-79
2021/12/14 01:34:42;;;;;;;15.68;11.13;;;7.40;99.90;;;;;;5009771;28;20182;-79
2021/12/14 01:37:15;;;;;;;15.30;11.43;;;7.40;99.90;;;;;;5009748;28;20196;-79
2021/12/14 01:40:04;;;;;;;13.67;10.80;;;7.40;99.90;;;;;;5009753;28;20176;-79
2021/12/14 01:42:36;;;;;;;14.98;11.27;;;7.40;99.90;;;;;;5010443;28;20207;-79
2021/12/14 01:45:17;;;;;;;13.77;10.73;;;7.40;99.90;;;;;;5009740;28;20180;-79
2021/12/14 01:47:47;;;;;;;13.33;10.10;;;7.40;99.90;;;;;;5009897;28;20200;-79
2021/12/14 01:50:25;;;;;;;15.40;11.73;;;7.40;99.90;;;;;;5011117;28;20172;-79
2021/12/14 01:52:50;;;;;;;15.38;10.48;;;7.30;99.90;;;;;;5029662;28;20241;-79
2021/12/14 01:55:22;;;;;;;15.30;11.27;;;7.40;99.90;;;;;;5013262;28;20188;-79
2021/12/14 01:57:49;;;;;;;12.70;10.80;;;7.30;99.90;;;;;;5014084;28;20202;-79
2021/12/14 02:00:21;;;;;;;14.77;10.47;;;7.30;99.90;;;;;;5013365;28;20172;-79
2021/12/14 02:02:48;;;;;;;21.97;11.00;;;7.40;99.90;;;;;;5013865;28;20203;-79
2021/12/14 02:05:34;;;;;;;13.90;10.47;;;7.30;99.90;;;;;;5014059;28;20190;-79
2021/12/14 02:08:12;;;;;;;15.33;11.03;;;7.20;99.90;;;;;;5012931;28;20191;-79
2021/12/14 02:10:38;;;;;;;29.03;12.30;;;7.20;99.90;;;;;;5014797;28;20187;-79
2021/12/14 02:13:05;;;;;;;17.13;11.33;;;7.00;99.90;;;;;;5012781;28;20203;-79
2021/12/14 02:15:41;;;;;;;19.93;12.10;;;6.90;99.90;;;;;;5029966;28;20206;-79
2021/12/14 02:18:12;;;;;;;18.87;12.40;;;6.80;99.90;;;;;;5014803;28;20203;-79
2021/12/14 02:20:38;;;;;;;15.83;11.20;;;6.80;99.90;;;;;;5013163;28;20349;-79
2021/12/14 02:23:06;;;;;;;19.40;12.47;;;6.80;99.90;;;;;;5013716;28;20573;-79
2021/12/14 02:25:32;;;;;;;19.20;12.20;;;6.80;99.90;;;;;;5013403;28;20180;-79
2021/12/14 02:28:01;;;;;;;19.17;11.33;;;6.80;99.90;;;;;;5013134;28;20199;-79
2021/12/14 02:30:29;;;;;;;21.47;10.97;;;6.80;99.90;;;;;;5013079;28;20184;-79
2021/12/14 02:32:56;;;;;;;18.67;11.50;;;6.70;99.90;;;;;;5013275;28;20179;-79
2021/12/14 02:35:25;;;;;;;15.10;10.73;;;6.70;99.90;;;;;;5013279;28;20180;-79
2021/12/14 02:38:06;;;;;;;16.00;11.20;;;6.70;99.90;;;;;;5012924;28;20253;-79
2021/12/14 02:40:57;;;;;;;13.33;9.93;;;6.80;99.90;;;;;;5030461;28;20275;-79
2021/12/14 02:43:47;;;;;;;19.07;9.93;;;6.80;99.90;;;;;;5012791;28;20222;-79
2021/12/14 02:46:23;;;;;;;14.77;10.03;;;6.80;99.90;;;;;;5029665;28;20737;-79
2021/12/14 02:48:58;;;;;;;15.93;9.80;;;6.70;99.90;;;;;;5013114;28;20267;-79
2021/12/14 02:51:31;;;;;;;20.47;11.40;;;6.60;99.90;;;;;;5030238;28;20179;-79
2021/12/14 02:54:02;;;;;;;21.10;11.33;;;6.60;99.90;;;;;;5014197;28;20176;-79
2021/12/14 02:56:31;;;;;;;28.40;11.90;;;6.50;99.90;;;;;;5013446;28;20202;-79
2021/12/14 02:59:22;;;;;;;20.53;11.73;;;6.50;99.90;;;;;;5011984;28;20254;-79
2021/12/14 03:01:51;;;;;;;22.23;11.67;;;6.40;99.90;;;;;;5027401;28;20214;-79
2021/12/14 03:04:17;;;;;;;33.43;11.30;;;6.50;99.90;;;;;;5012160;28;20183;-79
2021/12/14 03:06:50;;;;;;;25.47;12.40;;;6.50;99.90;;;;;;5011773;28;20731;-79
2021/12/14 03:09:53;;;;;;;21.97;11.30;;;6.50;99.90;;;;;;5028375;28;20179;-79
2021/12/14 03:12:32;;;;;;;20.10;11.43;;;6.50;99.90;;;;;;5012795;28;20198;-79
2021/12/14 03:15:22;;;;;;;17.83;10.80;;;6.60;99.90;;;;;;5011899;28;20665;-79
2021/12/14 03:17:51;;;;;;;42.93;11.67;;;6.50;99.90;;;;;;5013214;28;20211;-79
2021/12/14 03:20:24;;;;;;;17.77;10.83;;;6.60;99.90;;;;;;5012084;28;20210;-79
2021/12/14 03:22:58;;;;;;;20.30;10.90;;;6.50;99.90;;;;;;5012461;28;20211;-79
2021/12/14 03:25:24;;;;;;;24.17;10.90;;;6.40;99.90;;;;;;5028058;28;20646;-79
2021/12/14 03:27:51;;;;;;;18.40;11.10;;;6.40;99.90;;;;;;5012334;28;20282;-79
2021/12/14 03:30:25;;;;;;;18.13;10.73;;;6.40;99.90;;;;;;5011602;28;20642;-79
2021/12/14 03:32:52;;;;;;;18.43;10.37;;;6.40;99.90;;;;;;5028262;28;20634;-79
2021/12/14 03:35:19;;;;;;;20.47;9.57;;;6.50;99.90;;;;;;5011471;28;20186;-79
2021/12/14 03:37:45;;;;;;;14.63;9.70;;;6.60;99.90;;;;;;5027803;28;20206;-79
2021/12/14 03:40:11;;;;;;;17.50;10.03;;;6.60;99.90;;;;;;5028824;28;20202;-79
2021/12/14 03:42:40;;;;;;;14.83;10.07;;;6.60;99.90;;;;;;5011678;28;20238;-79
2021/12/14 03:45:20;;;;;;;18.83;10.33;;;6.70;99.90;;;;;;5011421;28;20290;-79
2021/12/14 03:47:51;;;;;;;15.80;10.23;;;6.80;99.90;;;;;;5011381;28;20199;-79
2021/12/14 03:50:22;;;;;;;16.90;10.17;;;6.90;99.90;;;;;;5011772;28;20172;-79
2021/12/14 03:52:48;;;;;;;15.37;10.40;;;7.00;99.90;;;;;;5012155;28;20225;-79
2021/12/14 03:55:23;;;;;;;15.37;10.57;;;7.10;99.90;;;;;;5013823;28;20183;-79
2021/12/14 03:57:49;;;;;;;14.97;10.00;;;7.10;99.90;;;;;;5028126;28;20206;-79
2021/12/14 04:00:19;;;;;;;16.10;10.97;;;7.20;99.90;;;;;;5012153;28;20180;-79
2021/12/14 04:02:45;;;;;;;17.87;10.77;;;7.20;99.90;;;;;;5011929;28;20211;-79
2021/12/14 04:05:12;;;;;;;20.00;9.70;;;7.10;99.90;;;;;;5011895;28;20179;-79
2021/12/14 04:07:42;;;;;;;16.40;9.90;;;7.10;99.90;;;;;;5028400;28;20636;-79
2021/12/14 04:10:19;;;;;;;12.17;8.33;;;7.10;99.90;;;;;;5028138;28;20172;-79
2021/12/14 04:12:45;;;;;;;12.63;8.87;;;7.20;99.90;;;;;;5012213;28;20186;-79
2021/12/14 04:15:12;;;;;;;12.90;8.60;;;7.10;99.90;;;;;;5028221;28;20179;-79
2021/12/14 04:17:39;;;;;;;14.23;8.80;;;7.10;99.90;;;;;;5028410;28;20235;-79
2021/12/14 04:20:24;;;;;;;13.43;8.40;;;7.10;99.90;;;;;;5028445;28;20191;-79
2021/12/14 04:22:51;;;;;;;13.73;9.40;;;7.20;99.90;;;;;;5012027;28;20211;-79
2021/12/14 04:25:20;;;;;;;13.27;8.77;;;7.20;99.90;;;;;;5028063;28;20179;-79
2021/12/14 04:27:47;;;;;;;15.17;9.17;;;7.20;99.90;;;;;;5028777;28;20278;-79
2021/12/14 04:30:15;;;;;;;13.40;9.70;;;7.20;99.90;;;;;;5028042;28;20180;-79
2021/12/14 04:32:54;;;;;;;16.10;11.27;;;7.10;99.90;;;;;;5012049;28;20186;-79
2021/12/14 04:35:20;;;;;;;14.93;10.10;;;7.20;99.90;;;;;;5011577;28;20240;-79
2021/12/14 04:37:53;;;;;;;27.03;15.83;;;7.20;99.90;;;;;;5010829;28;20676;-79
2021/12/14 04:54:05;;;;;;;20.00;15.10;;;6.80;99.90;;;;;;5012133;28;20530;-79
2021/12/14 04:56:37;;;;;;;22.40;18.20;;;6.70;99.90;;;;;;5010182;28;20195;-79
2021/12/14 04:59:14;;;;;;;13.70;9.37;;;6.80;99.90;;;;;;5010420;28;20228;-79
2021/12/14 05:01:44;;;;;;;15.67;10.57;;;6.80;99.90;;;;;;5026613;28;20301;-79
2021/12/14 05:04:15;;;;;;;13.47;9.83;;;6.80;99.90;;;;;;5011448;28;20203;-79
2021/12/14 05:06:51;;;;;;;13.70;10.07;;;6.90;99.90;;;;;;5026509;28;20678;-79
2021/12/14 05:09:27;;;;;;;14.67;10.40;;;7.00;99.90;;;;;;5010917;28;20171;-80
2021/12/14 05:12:14;;;;;;;14.00;9.97;;;6.90;99.90;;;;;;5011167;28;20239;-80
2021/12/14 05:14:42;;;;;;;13.27;9.77;;;7.00;99.90;;;;;;5026943;28;20184;-80
2021/12/14 05:17:10;;;;;;;14.90;11.93;;;7.00;99.90;;;;;;5026468;28;20210;-80
2021/12/14 05:19:39;;;;;;;14.43;10.60;;;7.00;99.90;;;;;;5010060;28;20191;-80
2021/12/14 05:22:10;;;;;;;16.07;12.73;;;7.00;99.90;;;;;;5011759;28;20223;-80
2021/12/14 05:24:46;;;;;;;14.13;10.73;;;7.10;99.90;;;;;;5010306;28;20563;-79
2021/12/14 05:27:18;;;;;;;12.10;9.63;;;7.10;99.90;;;;;;5009888;28;20191;-79
2021/12/14 05:29:44;;;;;;;11.47;9.47;;;7.20;99.90;;;;;;5010022;28;20520;-79
2021/12/14 05:32:10;;;;;;;12.77;9.53;;;7.10;99.90;;;;;;5026638;28;20271;-79
2021/12/14 05:37:59;;;;;;;10.87;9.20;;;7.10;99.90;;;;;;5009983;28;20347;-80
2021/12/14 05:43:06;;;;;;;11.30;9.40;;;7.00;99.90;;;;;;5009424;28;20202;-79
2021/12/14 05:45:53;;;;;;;11.60;9.27;;;7.00;99.90;;;;;;5007758;28;20172;-80
2021/12/14 05:48:23;;;;;;;11.93;10.40;;;7.00;99.90;;;;;;5009274;28;20167;-79
2021/12/14 05:50:53;;;;;;;12.53;10.67;;;7.00;99.90;;;;;;5009926;28;20200;-79
2021/12/14 05:53:31;;;;;;;13.10;10.47;;;7.00;99.90;;;;;;5010651;28;20219;-79
2021/12/14 05:55:59;;;;;;;11.63;9.60;;;7.00;99.90;;;;;;5010206;28;20232;-79
2021/12/14 05:58:25;;;;;;;14.20;9.37;;;7.10;99.90;;;;;;5026810;28;20187;-79
2021/12/14 06:00:56;;;;;;;11.33;9.57;;;7.00;99.90;;;;;;5027021;28;20186;-79
2021/12/14 06:03:30;;;;;;;13.30;10.50;;;7.10;99.90;;;;;;5010905;28;20203;-79
2021/12/14 06:05:57;;;;;;;13.27;9.37;;;7.00;99.90;;;;;;5010560;28;20171;-79
2021/12/14 06:08:33;;;;;;;13.37;9.87;;;7.10;99.90;;;;;;5026574;28;20180;-79
2021/12/14 06:10:59;;;;;;;11.83;9.13;;;7.10;99.90;;;;;;5026704;28;20236;-80
2021/12/14 06:13:43;;;;;;;12.30;9.17;;;7.10;99.90;;;;;;5011779;28;20188;-79
2021/12/14 06:16:28;;;;;;;11.77;8.80;;;7.10;99.90;;;;;;5025875;28;20203;-77
2021/12/14 06:19:11;;;;;;;10.73;8.13;;;7.20;99.90;;;;;;5011221;28;20221;-79
2021/12/14 06:21:37;;;;;;;12.17;8.77;;;7.10;99.90;;;;;;5010252;28;20274;-80
2021/12/14 06:24:08;;;;;;;10.77;8.67;;;7.10;99.90;;;;;;5025733;28;20286;-80
2021/12/14 06:26:41;;;;;;;10.87;9.40;;;7.10;99.90;;;;;;5026171;28;20206;-80
2021/12/14 06:29:10;;;;;;;11.67;9.27;;;7.10;99.90;;;;;;5025544;28;20195;-80
2021/12/14 06:31:36;;;;;;;12.03;9.33;;;7.00;99.90;;;;;;5026356;28;20186;-80
2021/12/14 06:34:23;;;;;;;11.77;8.93;;;7.10;99.90;;;;;;5025731;28;20252;-80
2021/12/14 06:36:53;;;;;;;12.37;9.57;;;7.00;99.90;;;;;;5028138;28;20196;-80
2021/12/14 06:39:20;;;;;;;10.77;9.10;;;7.00;99.90;;;;;;5012884;28;20596;-80
2021/12/14 06:41:45;;;;;;;11.20;9.17;;;7.10;99.90;;;;;;5028903;28;20675;-80
2021/12/14 06:44:11;;;;;;;12.67;9.53;;;7.10;99.90;;;;;;5029033;28;20214;-80
2021/12/14 06:46:40;;;;;;;11.67;9.47;;;7.00;99.90;;;;;;5013651;28;20195;-80
2021/12/14 06:49:13;;;;;;;13.27;9.40;;;7.00;99.90;;;;;;5028606;28;20183;-80
2021/12/14 06:51:43;;;;;;;11.67;8.93;;;6.90;99.90;;;;;;5029272;28;20172;-80
2021/12/14 06:57:31;;;;;;;10.27;7.83;;;7.00;99.90;;;;;;5013447;28;20230;-80
2021/12/14 06:59:58;;;;;;;11.87;8.77;;;7.00;99.90;;;;;;5028528;28;20171;-80
2021/12/14 07:02:24;;;;;;;10.43;8.70;;;6.90;99.90;;;;;;5028613;28;20207;-80
2021/12/14 07:04:51;;;;;;;11.10;9.30;;;7.00;99.90;;;;;;5013211;28;20183;-80
2021/12/14 07:08:04;;;;;;;12.70;9.07;;;6.90;99.90;;;;;;5029080;28;20195;-80
2021/12/14 07:10:38;;;;;;;11.17;8.70;;;6.90;99.90;;;;;;5012754;28;20274;-81
2021/12/14 07:13:17;;;;;;;10.00;8.40;;;6.90;99.90;;;;;;5012973;28;20244;-80
2021/12/14 07:15:43;;;;;;;10.60;8.60;;;6.90;99.90;;;;;;5013127;28;20300;-80
2021/12/14 07:18:10;;;;;;;9.70;8.67;;;6.80;99.90;;;;;;5029719;28;20175;-80
2021/12/14 07:20:49;;;;;;;16.17;14.10;;;6.80;99.90;;;;;;5013959;28;20244;-80
2021/12/14 07:23:35;;;;;;;14.70;12.63;;;6.80;99.90;;;;;;5013145;28;20234;-80
2021/12/14 07:26:17;;;;;;;13.20;11.10;;;6.90;99.90;;;;;;5011803;28;20172;-80
2021/12/14 07:28:45;;;;;;;12.47;10.33;;;6.90;99.90;;;;;;5013156;28;20176;-80
2021/12/14 07:31:15;;;;;;;13.10;10.60;;;7.00;99.90;;;;;;5013589;28;20190;-80
2021/12/14 07:33:48;;;;;;;10.40;8.63;;;7.00;99.90;;;;;;5012420;28;20222;-80
2021/12/14 07:36:26;;;;;;;9.60;8.60;;;7.00;99.90;;;;;;5029879;28;20210;-80
2021/12/14 07:39:08;;;;;;;11.40;8.53;;;7.10;99.90;;;;;;5030832;28;20199;-80
2021/12/14 07:41:39;;;;;;;9.20;8.17;;;7.20;99.90;;;;;;5030607;28;20225;-80
2021/12/14 07:44:14;;;;;;;9.80;8.33;;;7.20;99.90;;;;;;5015799;28;20172;-80
2021/12/14 07:46:54;;;;;;;9.90;8.10;;;7.10;99.90;;;;;;5029576;28;20202;-80
2021/12/14 07:49:26;;;;;;;10.90;8.93;;;7.10;99.90;;;;;;5015086;28;20167;-80
2021/12/14 07:51:57;;;;;;;9.63;8.17;;;7.20;99.90;;;;;;5030793;28;20172;-80
2021/12/14 07:54:44;;;;;;;10.00;8.23;;;7.20;99.90;;;;;;5015117;28;20662;-80
2021/12/14 07:57:14;;;;;;;11.93;9.57;;;7.20;99.90;;;;;;5031417;28;20298;-80
2021/12/14 07:59:57;;;;;;;11.33;8.80;;;7.20;99.90;;;;;;5029293;28;20180;-80
2021/12/14 08:03:16;;;;;;;9.83;8.80;;;7.20;99.90;;;;;;5029610;28;20349;-80
2021/12/14 08:05:46;;;;;;;11.23;8.50;;;7.20;99.90;;;;;;5012993;28;20190;-80
2021/12/14 08:08:30;;;;;;;12.20;8.43;;;7.20;99.90;;;;;;5029161;28;20194;-80
2021/12/14 08:11:16;;;;;;;8.87;7.90;;;7.30;99.90;;;;;;5030099;28;20194;-80
2021/12/14 08:13:45;;;;;;;9.90;8.43;;;7.30;99.90;;;;;;5029132;28;20168;-80
2021/12/14 08:16:11;;;;;;;11.33;8.70;;;7.20;99.90;;;;;;5027416;28;20214;-80
2021/12/14 08:18:38;;;;;;;9.50;8.50;;;7.10;99.90;;;;;;5014811;28;20191;-80
2021/12/14 08:21:08;;;;;;;9.47;8.30;;;7.10;99.90;;;;;;5013519;28;20202;-80
2021/12/14 08:23:55;;;;;;;8.75;7.72;;;7.10;99.90;;;;;;5014204;28;20195;-80
2021/12/14 08:26:40;;;;;;;8.32;7.53;;;7.20;99.90;;;;;;5029279;28;20206;-80
2021/12/14 08:29:23;;;;;;;10.47;8.10;;;7.10;99.90;;;;;;5030504;28;20190;-80
2021/12/14 08:31:53;;;;;;;8.85;7.95;;;7.20;99.90;;;;;;5029178;28;20623;-80
2021/12/14 08:34:25;;;;;;;9.00;8.10;;;7.20;99.90;;;;;;5015549;28;20225;-80
2021/12/14 08:37:01;;;;;;;8.60;7.70;;;7.20;99.90;;;;;;5031302;28;20199;-80
2021/12/14 08:39:31;;;;;;;9.37;8.00;;;7.30;99.90;;;;;;5015569;28;20205;-80
2021/12/14 08:42:13;;;;;;;9.73;8.73;;;7.40;99.90;;;;;;5030373;28;20620;-80
2021/12/14 08:44:41;;;;;;;9.75;8.75;;;7.40;99.90;;;;;;5014070;28;20225;-80
2021/12/14 08:47:14;;;;;;;10.50;9.43;;;7.40;99.90;;;;;;5029370;28;20195;-80
2021/12/14 08:49:41;;;;;;;11.17;9.67;;;7.50;99.90;;;;;;5031096;28;20250;-80
2021/12/14 08:52:07;;;;;;;11.67;10.17;;;7.50;99.90;;;;;;5020330;28;20183;-80
2021/12/14 08:54:35;;;;;;;10.57;9.43;;;7.50;99.90;;;;;;5017475;28;20212;-80
2021/12/14 08:57:04;;;;;;;10.90;9.45;;;7.60;99.90;;;;;;5029816;28;20207;-80
2021/12/14 08:59:32;;;;;;;9.70;8.47;;;7.50;99.90;;;;;;5013136;28;20184;-80
2021/12/14 09:02:00;;;;;;;11.30;8.83;;;7.40;99.90;;;;;;5033831;28;20195;-80
2021/12/14 09:04:37;;;;;;;11.07;9.43;;;7.50;99.90;;;;;;5034244;28;20183;-80
2021/12/14 09:07:12;;;;;;;10.60;8.87;;;7.60;99.90;;;;;;5026335;28;20203;-79
2021/12/14 09:09:39;;;;;;;11.53;9.83;;;7.60;99.90;;;;;;5013274;28;20262;-79
2021/12/14 09:12:10;;;;;;;11.27;10.03;;;7.60;99.90;;;;;;5011771;28;20233;-80
2021/12/14 09:14:37;;;;;;;10.13;8.97;;;7.60;99.90;;;;;;5012805;28;20179;-80
2021/12/14 09:17:05;;;;;;;10.20;9.15;;;7.50;99.90;;;;;;5013652;28;20210;-80
2021/12/14 09:19:41;;;;;;;11.23;9.30;;;7.50;99.90;;;;;;5013490;28;20251;-80
2021/12/14 09:22:15;;;;;;;14.90;9.43;;;7.60;99.90;;;;;;5012999;28;20235;-80
2021/12/14 09:24:42;;;;;;;11.87;10.63;;;7.60;99.90;;;;;;5011839;28;20176;-79
2021/12/14 09:27:20;;;;;;;11.43;9.70;;;7.60;99.90;;;;;;5010910;28;20204;-80
2021/12/14 09:30:00;;;;;;;15.13;13.50;;;7.60;99.90;;;;;;5010592;28;20174;-79
2021/12/14 09:32:28;;;;;;;13.38;10.98;;;7.70;99.90;;;;;;5010780;28;20232;-79
2021/12/14 09:34:59;;;;;;;13.38;11.48;;;7.70;99.90;;;;;;5010461;28;20180;-79
2021/12/14 09:37:28;;;;;;;12.50;10.60;;;7.70;99.90;;;;;;5011656;28;20290;-79
2021/12/14 09:40:01;;;;;;;12.18;10.88;;;7.70;99.90;;;;;;5011437;28;20183;-79
2021/12/14 09:42:32;;;;;;;13.57;11.52;;;7.70;99.90;;;;;;5010921;28;20207;-79
2021/12/14 09:45:14;;;;;;;12.90;10.97;;;7.70;99.90;;;;;;5010333;28;20259;-79
2021/12/14 09:47:40;;;;;;;13.07;10.73;;;7.70;99.90;;;;;;5010132;28;20230;-79
2021/12/14 09:50:15;;;;;;;16.23;12.70;;;7.70;99.90;;;;;;5010401;28;20228;-79
2021/12/14 09:52:43;;;;;;;15.23;12.47;;;7.70;99.90;;;;;;5010225;28;20617;-79
2021/12/14 09:55:13;;;;;;;13.65;11.75;;;7.70;99.90;;;;;;5010163;28;20187;-79
2021/12/14 09:58:05;;;;;;;18.58;14.07;;;7.60;99.90;;;;;;5011802;28;20249;-79
2021/12/14 10:00:36;;;;;;;16.75;13.07;;;7.50;99.90;;;;;;5011156;28;20187;-79
2021/12/14 10:03:04;;;;;;;15.17;12.63;;;7.40;99.90;;;;;;5011554;28;20217;-79
2021/12/14 10:06:26;;;;;;;17.77;12.90;;;7.30;99.90;;;;;;5011450;28;20179;-79
2021/12/14 10:08:59;;;;;;;15.00;11.73;;;7.30;99.90;;;;;;5012195;28;20212;-79
2021/12/14 10:11:49;;;;;;;18.05;12.65;;;7.40;99.90;;;;;;5014632;28;20178;-79
2021/12/14 10:14:18;;;;;;;16.48;14.07;;;7.50;99.90;;;;;;5016379;28;20530;-79
2021/12/14 10:16:45;;;;;;;14.57;12.37;;;7.60;99.90;;;;;;5016847;28;20203;-79
2021/12/14 10:19:14;;;;;;;12.98;11.20;;;7.70;99.90;;;;;;5015699;28;20187;-79
2021/12/14 10:21:45;;;;;;;15.17;11.80;;;7.80;99.90;;;;;;5014822;28;20217;-79
2021/12/14 10:24:12;;;;;;;12.50;10.80;;;7.90;99.90;;;;;;5015829;28;20176;-79
2021/12/14 10:26:44;;;;;;;15.10;11.05;;;7.90;99.90;;;;;;5015916;28;20235;-80
2021/12/14 10:29:15;;;;;;;14.05;12.00;;;7.90;99.90;;;;;;5013985;28;20176;-80
2021/12/14 10:31:49;;;;;;;14.48;11.20;;;8.00;99.90;;;;;;5014058;28;20191;-80
2021/12/14 10:34:25;;;;;;;15.05;12.20;;;8.00;99.90;;;;;;5016482;28;20203;-80
2021/12/14 10:37:00;;;;;;;15.57;11.85;;;8.00;99.90;;;;;;5033792;28;20254;-80
2021/12/14 10:44:54;;;;;;;13.38;11.98;;;8.00;99.90;;;;;;5030758;28;20198;-80
2021/12/14 10:47:25;;;;;;;16.00;13.38;;;7.90;99.90;;;;;;5017922;28;20196;-80
2021/12/14 10:49:53;;;;;;;14.27;12.43;;;7.90;99.90;;;;;;5013430;28;20178;-80
2021/12/14 10:52:24;;;;;;;15.80;13.18;;;7.80;99.90;;;;;;5013283;28;20182;-80
2021/12/14 10:54:54;;;;;;;13.70;11.98;;;7.90;99.90;;;;;;5015056;28;20172;-80
2021/12/14 10:57:23;;;;;;;17.83;13.93;;;7.90;99.90;;;;;;5014637;28;20229;-80
2021/12/14 10:59:52;;;;;;;17.73;14.05;;;7.90;99.90;;;;;;5014287;28;20255;-80
2021/12/14 11:02:20;;;;;;;16.48;13.95;;;7.80;99.90;;;;;;5013570;28;20203;-80
2021/12/14 11:04:56;;;;;;;16.02;13.13;;;7.90;99.90;;;;;;5012656;28;20203;-80
2021/12/14 11:07:27;;;;;;;16.27;14.45;;;8.10;99.90;;;;;;5015172;28;20191;-80
2021/12/14 11:09:55;;;;;;;18.63;13.77;;;8.10;99.90;;;;;;5015973;28;20175;-79
2021/12/14 11:13:10;;;;;;;15.77;13.35;;;8.20;99.90;;;;;;5014566;28;20183;-79
2021/12/14 11:15:41;;;;;;;18.08;14.18;;;8.10;99.90;;;;;;5015460;28;20164;-79
2021/12/14 11:18:12;;;;;;;16.92;14.02;;;8.10;99.90;;;;;;5014758;28;20203;-79
2021/12/14 11:20:41;;;;;;;14.20;12.70;;;8.10;99.90;;;;;;5015559;28;20199;-79
2021/12/14 11:23:12;;;;;;;16.73;13.18;;;8.10;99.90;;;;;;5015691;28;20211;-79
2021/12/14 11:25:46;;;;;;;17.80;13.80;;;8.30;99.90;;;;;;5014516;28;20176;-79
2021/12/14 11:28:30;;;;;;;18.20;12.15;;;8.30;99.90;;;;;;5012940;28;20164;-79
2021/12/14 11:31:05;;;;;;;14.40;12.55;;;8.30;99.90;;;;;;5014675;28;20241;-79
2021/12/14 11:33:39;;;;;;;13.70;11.88;;;8.30;99.90;;;;;;5015049;28;20645;-80
2021/12/14 11:36:22;;;;;;;17.88;13.73;;;8.40;99.90;;;;;;5014522;28;20222;-80
2021/12/14 11:38:59;;;;;;;15.90;13.40;;;8.40;99.90;;;;;;5012995;28;20179;-80
2021/12/14 11:41:36;;;;;;;15.30;12.82;;;8.30;99.90;;;;;;5011782;28;20168;-80
2021/12/14 11:44:12;;;;;;;16.45;13.48;;;8.30;99.90;;;;;;5012709;28;20206;-79
2021/12/14 11:49:55;;;;;;;15.80;13.40;;;8.40;99.90;;;;;;5032980;28;20189;-79
2021/12/14 11:52:33;;;;;;;15.07;12.32;;;8.40;99.90;;;;;;5031909;28;20159;-79
2021/12/14 11:55:19;;;;;;;15.73;12.40;;;8.40;99.90;;;;;;5032130;28;20199;-79
2021/12/14 11:57:45;;;;;;;15.32;12.45;;;8.30;99.90;;;;;;5032017;28;20202;-79
2021/12/14 12:00:16;;;;;;;15.00;12.50;;;8.30;99.90;;;;;;5031704;28;20183;-79
2021/12/14 12:02:50;;;;;;;13.95;12.15;;;8.30;99.90;;;;;;5031155;28;20207;-79
2021/12/14 12:05:21;;;;;;;15.07;13.20;;;8.30;99.90;;;;;;5031212;28;20159;-79
2021/12/14 12:11:17;;;;;;;17.40;14.00;;;8.30;99.90;;;;;;5034623;28;20171;-79
2021/12/14 12:13:44;;;;;;;15.77;13.13;;;8.40;99.90;;;;;;5030942;28;20173;-79
2021/12/14 12:16:21;;;;;;;18.30;14.65;;;8.40;99.90;;;;;;5032368;28;20191;-79
2021/12/14 12:19:08;;;;;;;17.45;13.10;;;8.40;99.90;;;;;;5032691;28;20189;-79
2021/12/14 12:21:37;;;;;;;15.43;13.02;;;8.40;99.90;;;;;;5031414;28;20217;-78
2021/12/14 12:24:04;;;;;;;14.57;12.88;;;8.40;99.90;;;;;;5031902;28;20197;-79
2021/12/14 12:26:40;;;;;;;13.90;12.23;;;8.40;99.90;;;;;;5031270;28;20195;-79
2021/12/14 12:29:07;;;;;;;15.07;12.35;;;8.40;99.90;;;;;;5031374;28;20185;-79
2021/12/14 12:31:39;;;;;;;14.25;11.48;;;8.40;99.90;;;;;;5031591;28;20175;-79
2021/12/14 12:34:09;;;;;;;13.10;11.68;;;8.40;99.90;;;;;;5031858;28;20151;-79
2021/12/14 12:36:40;;;;;;;13.60;11.55;;;8.40;99.90;;;;;;5030728;28;20194;-79
2021/12/14 12:39:34;;;;;;;12.63;11.32;;;8.40;99.90;;;;;;5030567;28;20163;-79
2021/12/14 12:42:05;;;;;;;14.05;12.20;;;8.30;99.90;;;;;;5030517;28;20233;-79
2021/12/14 12:44:42;;;;;;;13.10;11.27;;;8.30;99.90;;;;;;5030410;28;20198;-79
2021/12/14 12:47:10;;;;;;;17.33;12.18;;;8.30;99.90;;;;;;5029742;28;20198;-79
2021/12/14 12:49:46;;;;;;;13.73;11.88;;;8.30;99.90;;;;;;5028859;28;20201;-79
2021/12/14 12:52:12;;;;;;;15.00;11.90;;;8.30;99.90;;;;;;5029983;28;20238;-79
2021/12/14 12:55:02;;;;;;;15.52;12.60;;;8.30;99.90;;;;;;5029847;28;20179;-79
2021/12/14 12:57:34;;;;;;;15.48;13.07;;;8.30;99.90;;;;;;5031849;28;20207;-79
2021/12/14 13:00:18;;;;;;;13.70;12.02;;;8.10;99.90;;;;;;5031565;28;20644;-79
2021/12/14 13:02:53;;;;;;;17.60;13.57;;;8.10;99.90;;;;;;5031545;28;20194;-79
2021/12/14 13:05:42;;;;;;;15.68;12.80;;;8.20;99.90;;;;;;5030559;28;20171;-79
2021/12/14 13:08:10;;;;;;;15.85;13.05;;;8.20;99.90;;;;;;5032647;28;20202;-80
2021/12/14 13:10:44;;;;;;;16.42;13.43;;;8.20;99.90;;;;;;5031165;28;20163;-80
2021/12/14 13:13:24;;;;;;;16.13;12.65;;;8.20;99.90;;;;;;5033013;28;20174;-80
2021/12/14 13:15:56;;;;;;;15.52;13.57;;;8.20;99.90;;;;;;5032847;28;20163;-79
2021/12/14 13:18:27;;;;;;;17.13;13.40;;;8.20;99.90;;;;;;5030993;28;20232;-79
2021/12/14 13:21:15;;;;;;;16.08;13.00;;;8.20;99.90;;;;;;5031111;28;20683;-79
2021/12/14 13:24:05;;;;;;;17.27;13.05;;;8.10;99.90;;;;;;5031036;28;20198;-79
2021/12/14 13:27:14;;;;;;;15.68;13.30;;;8.10;99.90;;;;;;5030567;28;20206;-79
2021/12/14 13:29:58;;;;;;;15.90;13.65;;;8.10;99.90;;;;;;5020774;28;20266;-79
2021/12/14 13:32:25;;;;;;;16.13;12.95;;;8.10;99.90;;;;;;5029817;28;20170;-79
2021/12/14 13:34:59;;;;;;;16.38;13.13;;;8.10;99.90;;;;;;5030525;28;20175;-79
2021/12/14 13:37:47;;;;;;;15.18;12.75;;;8.10;99.90;;;;;;5030873;28;20202;-79
2021/12/14 13:40:19;;;;;;;16.95;13.60;;;8.10;99.90;;;;;;5030403;28;20182;-79
2021/12/14 13:42:57;;;;;;;16.10;13.40;;;8.20;99.90;;;;;;5030680;28;20195;-79
2021/12/14 13:45:25;;;;;;;16.23;14.18;;;8.20;99.90;;;;;;5029502;28;20163;-80
2021/12/14 13:47:53;;;;;;;17.60;13.40;;;8.20;99.90;;;;;;5030066;28;20198;-80
2021/12/14 13:50:35;;;;;;;14.35;12.73;;;8.30;99.90;;;;;;5029620;28;20547;-80
2021/12/14 13:53:02;;;;;;;18.20;13.25;;;8.30;99.90;;;;;;5029441;28;20199;-80
2021/12/14 13:55:44;;;;;;;19.33;13.75;;;8.30;99.90;;;;;;5029390;28;20179;-80
2021/12/14 13:58:19;;;;;;;17.70;13.80;;;8.20;99.90;;;;;;5029380;28;20183;-80